sensor_id;sensor_type;location;lat;lon;timestamp;noise_LAeq;noise_LA_min;noise_LA_max;noise_LA01;noise_LA95
76767;Laerm;65707;52.362;6.588;2023-10-31T00:00:40;50.74;41.21;78.24;;
76767;Laerm;65707;52.362;6.588;2023-10-31T00:03:07;43.30;37.12;68.91;;
76767;Laerm;65707;52.362;6.588;2023-10-31T00:05:35;41.97;37.43;56.11;;
76767;Laerm;65707;52.362;6.588;2023-10-31T00:08:02;42.30;38.14;61.16;;
76767;Laerm;65707;52.362;6.588;2023-10-31T00:10:29;42.12;37.10;58.70;;
76767;Laerm;65707;52.362;6.588;2023-10-31T00:12:56;48.32;38.93;73.43;;
76767;Laerm;65707;52.362;6.588;2023-10-31T00:15:24;44.76;39.03;64.22;;
76767;Laerm;65707;52.362;6.588;2023-10-31T00:17:50;43.82;38.86;66.22;;
76767;Laerm;65707;52.362;6.588;2023-10-31T00:20:17;45.89;38.68;70.58;;
76767;Laerm;65707;52.362;6.588;2023-10-31T00:22:45;69.94;41.82;84.57;;
76767;Laerm;65707;52.362;6.588;2023-10-31T00:25:12;52.58;43.08;78.55;;
76767;Laerm;65707;52.362;6.588;2023-10-31T00:27:38;47.51;38.90;72.92;;
76767;Laerm;65707;52.362;6.588;2023-10-31T00:30:07;44.17;38.70;62.45;;
76767;Laerm;65707;52.362;6.588;2023-10-31T00:32:35;49.44;40.08;78.12;;
76767;Laerm;65707;52.362;6.588;2023-10-31T00:35:02;53.85;43.08;79.66;;
76767;Laerm;65707;52.362;6.588;2023-10-31T00:37:29;55.44;43.28;83.52;;
76767;Laerm;65707;52.362;6.588;2023-10-31T00:39:56;45.30;39.56;69.05;;
76767;Laerm;65707;52.362;6.588;2023-10-31T00:42:22;40.39;35.95;48.65;;
76767;Laerm;65707;52.362;6.588;2023-10-31T00:44:49;44.21;38.68;67.68;;
76767;Laerm;65707;52.362;6.588;2023-10-31T00:47:16;45.43;38.84;70.60;;
76767;Laerm;65707;52.362;6.588;2023-10-31T00:49:44;46.04;38.83;72.67;;
76767;Laerm;65707;52.362;6.588;2023-10-31T00:52:11;41.74;37.02;60.73;;
76767;Laerm;65707;52.362;6.588;2023-10-31T00:54:38;40.77;36.07;59.82;;
76767;Laerm;65707;52.362;6.588;2023-10-31T00:57:04;39.70;34.13;54.11;;
76767;Laerm;65707;52.362;6.588;2023-10-31T00:59:31;43.99;34.95;68.98;;
76767;Laerm;65707;52.362;6.588;2023-10-31T01:01:58;46.56;37.35;67.62;;
76767;Laerm;65707;52.362;6.588;2023-10-31T01:04:24;50.31;39.24;73.69;;
76767;Laerm;65707;52.362;6.588;2023-10-31T01:06:52;47.54;37.26;71.15;;
76767;Laerm;65707;52.362;6.588;2023-10-31T01:09:19;45.79;37.37;63.01;;
76767;Laerm;65707;52.362;6.588;2023-10-31T01:11:47;45.64;38.51;64.98;;
76767;Laerm;65707;52.362;6.588;2023-10-31T01:14:14;48.03;35.75;67.69;;
76767;Laerm;65707;52.362;6.588;2023-10-31T01:16:41;46.13;39.87;65.72;;
76767;Laerm;65707;52.362;6.588;2023-10-31T01:19:07;68.98;38.96;83.42;;
76767;Laerm;65707;52.362;6.588;2023-10-31T01:21:34;49.06;39.74;71.88;;
76767;Laerm;65707;52.362;6.588;2023-10-31T01:24:03;46.39;37.87;67.05;;
76767;Laerm;65707;52.362;6.588;2023-10-31T01:26:30;46.53;39.37;66.55;;
76767;Laerm;65707;52.362;6.588;2023-10-31T01:28:56;50.12;38.52;72.77;;
76767;Laerm;65707;52.362;6.588;2023-10-31T01:31:23;49.14;38.09;71.97;;
76767;Laerm;65707;52.362;6.588;2023-10-31T01:33:50;65.61;39.10;82.47;;
76767;Laerm;65707;52.362;6.588;2023-10-31T01:36:17;68.84;37.81;83.52;;
76767;Laerm;65707;52.362;6.588;2023-10-31T01:38:43;49.73;38.68;73.54;;
76767;Laerm;65707;52.362;6.588;2023-10-31T01:41:13;51.65;38.98;76.94;;
76767;Laerm;65707;52.362;6.588;2023-10-31T01:43:39;45.63;36.83;64.41;;
76767;Laerm;65707;52.362;6.588;2023-10-31T01:46:07;44.73;37.02;63.59;;
76767;Laerm;65707;52.362;6.588;2023-10-31T01:48:34;51.07;38.75;73.53;;
76767;Laerm;65707;52.362;6.588;2023-10-31T01:51:03;49.47;38.56;75.42;;
76767;Laerm;65707;52.362;6.588;2023-10-31T01:53:32;49.15;39.34;67.79;;
76767;Laerm;65707;52.362;6.588;2023-10-31T01:56:00;43.32;37.82;56.71;;
76767;Laerm;65707;52.362;6.588;2023-10-31T01:58:33;43.03;36.75;60.61;;
76767;Laerm;65707;52.362;6.588;2023-10-31T02:01:01;46.85;38.10;66.72;;
76767;Laerm;65707;52.362;6.588;2023-10-31T02:03:29;43.38;37.97;60.91;;
76767;Laerm;65707;52.362;6.588;2023-10-31T02:05:57;46.91;37.87;69.44;;
76767;Laerm;65707;52.362;6.588;2023-10-31T02:08:24;44.65;37.94;64.59;;
76767;Laerm;65707;52.362;6.588;2023-10-31T02:10:51;46.98;37.18;64.93;;
76767;Laerm;65707;52.362;6.588;2023-10-31T02:13:18;45.98;37.62;71.31;;
76767;Laerm;65707;52.362;6.588;2023-10-31T02:15:47;50.22;37.52;78.66;;
76767;Laerm;65707;52.362;6.588;2023-10-31T02:18:14;40.54;34.46;54.90;;
76767;Laerm;65707;52.362;6.588;2023-10-31T02:20:42;46.43;35.28;64.96;;
76767;Laerm;65707;52.362;6.588;2023-10-31T02:23:11;44.51;35.18;62.39;;
76767;Laerm;65707;52.362;6.588;2023-10-31T02:25:37;51.52;34.85;72.93;;
76767;Laerm;65707;52.362;6.588;2023-10-31T02:28:04;41.16;34.95;61.09;;
76767;Laerm;65707;52.362;6.588;2023-10-31T02:30:32;43.17;35.19;66.60;;
76767;Laerm;65707;52.362;6.588;2023-10-31T02:33:00;41.34;34.12;59.79;;
76767;Laerm;65707;52.362;6.588;2023-10-31T02:35:27;45.01;34.71;69.14;;
76767;Laerm;65707;52.362;6.588;2023-10-31T02:37:54;46.60;34.10;67.53;;
76767;Laerm;65707;52.362;6.588;2023-10-31T02:40:22;44.11;35.17;69.73;;
76767;Laerm;65707;52.362;6.588;2023-10-31T02:42:48;46.93;34.66;70.24;;
76767;Laerm;65707;52.362;6.588;2023-10-31T02:45:15;44.23;33.91;68.14;;
76767;Laerm;65707;52.362;6.588;2023-10-31T02:47:42;43.14;33.16;71.94;;
76767;Laerm;65707;52.362;6.588;2023-10-31T02:50:09;39.88;33.60;61.73;;
76767;Laerm;65707;52.362;6.588;2023-10-31T02:52:36;44.23;33.31;70.46;;
76767;Laerm;65707;52.362;6.588;2023-10-31T02:55:03;40.25;33.02;55.47;;
76767;Laerm;65707;52.362;6.588;2023-10-31T02:57:32;40.71;34.29;58.59;;
76767;Laerm;65707;52.362;6.588;2023-10-31T02:59:58;41.53;34.19;64.41;;
76767;Laerm;65707;52.362;6.588;2023-10-31T03:02:25;45.50;35.51;68.09;;
76767;Laerm;65707;52.362;6.588;2023-10-31T03:04:52;40.90;34.87;57.29;;
76767;Laerm;65707;52.362;6.588;2023-10-31T03:07:19;42.23;34.93;63.75;;
76767;Laerm;65707;52.362;6.588;2023-10-31T03:09:45;49.18;33.55;75.24;;
76767;Laerm;65707;52.362;6.588;2023-10-31T03:12:12;41.09;33.90;63.90;;
76767;Laerm;65707;52.362;6.588;2023-10-31T03:14:41;42.30;35.16;60.24;;
76767;Laerm;65707;52.362;6.588;2023-10-31T03:17:08;43.79;34.68;61.80;;
76767;Laerm;65707;52.362;6.588;2023-10-31T03:19:34;47.34;34.68;63.00;;
76767;Laerm;65707;52.362;6.588;2023-10-31T03:22:01;44.33;35.34;64.88;;
76767;Laerm;65707;52.362;6.588;2023-10-31T03:24:28;40.37;35.52;55.04;;
76767;Laerm;65707;52.362;6.588;2023-10-31T03:26:55;40.91;36.52;60.98;;
76767;Laerm;65707;52.362;6.588;2023-10-31T03:29:21;44.30;35.59;68.84;;
76767;Laerm;65707;52.362;6.588;2023-10-31T03:31:49;47.08;35.91;70.90;;
76767;Laerm;65707;52.362;6.588;2023-10-31T03:34:16;42.87;37.05;66.36;;
76767;Laerm;65707;52.362;6.588;2023-10-31T03:36:43;40.66;34.80;56.91;;
76767;Laerm;65707;52.362;6.588;2023-10-31T03:39:10;41.43;35.38;61.40;;
76767;Laerm;65707;52.362;6.588;2023-10-31T03:41:36;41.54;35.44;58.99;;
76767;Laerm;65707;52.362;6.588;2023-10-31T03:44:04;45.11;38.08;67.13;;
76767;Laerm;65707;52.362;6.588;2023-10-31T03:46:30;44.04;36.57;69.30;;
76767;Laerm;65707;52.362;6.588;2023-10-31T03:48:59;42.49;35.71;59.56;;
76767;Laerm;65707;52.362;6.588;2023-10-31T03:51:25;43.47;35.72;67.00;;
76767;Laerm;65707;52.362;6.588;2023-10-31T03:53:52;40.29;34.90;55.63;;
76767;Laerm;65707;52.362;6.588;2023-10-31T03:56:19;45.48;37.77;65.52;;
76767;Laerm;65707;52.362;6.588;2023-10-31T03:58:45;42.73;36.11;67.51;;
76767;Laerm;65707;52.362;6.588;2023-10-31T04:01:12;41.71;37.32;57.00;;
76767;Laerm;65707;52.362;6.588;2023-10-31T04:03:39;68.56;36.68;82.11;;
76767;Laerm;65707;52.362;6.588;2023-10-31T04:06:07;39.88;35.27;51.70;;
76767;Laerm;65707;52.362;6.588;2023-10-31T04:08:34;40.46;37.20;56.80;;
76767;Laerm;65707;52.362;6.588;2023-10-31T04:11:01;58.44;36.17;78.61;;
76767;Laerm;65707;52.362;6.588;2023-10-31T04:13:28;42.18;37.11;57.32;;
76767;Laerm;65707;52.362;6.588;2023-10-31T04:15:55;40.61;36.32;57.89;;
76767;Laerm;65707;52.362;6.588;2023-10-31T04:18:21;43.70;37.69;62.04;;
76767;Laerm;65707;52.362;6.588;2023-10-31T04:20:48;42.53;38.02;54.90;;
76767;Laerm;65707;52.362;6.588;2023-10-31T04:23:16;42.64;37.45;52.84;;
76767;Laerm;65707;52.362;6.588;2023-10-31T04:25:43;42.30;37.43;57.07;;
76767;Laerm;65707;52.362;6.588;2023-10-31T04:28:10;41.59;37.42;60.44;;
76767;Laerm;65707;52.362;6.588;2023-10-31T04:30:38;44.21;37.35;63.48;;
76767;Laerm;65707;52.362;6.588;2023-10-31T04:33:05;45.75;39.21;55.69;;
76767;Laerm;65707;52.362;6.588;2023-10-31T04:35:32;44.09;37.60;55.32;;
76767;Laerm;65707;52.362;6.588;2023-10-31T04:37:58;55.37;39.32;75.24;;
76767;Laerm;65707;52.362;6.588;2023-10-31T04:40:26;60.55;40.17;77.42;;
76767;Laerm;65707;52.362;6.588;2023-10-31T04:42:54;43.54;38.63;54.46;;
76767;Laerm;65707;52.362;6.588;2023-10-31T04:45:20;44.41;39.03;55.22;;
76767;Laerm;65707;52.362;6.588;2023-10-31T04:47:47;44.29;39.42;67.22;;
76767;Laerm;65707;52.362;6.588;2023-10-31T04:50:14;48.04;41.09;75.00;;
76767;Laerm;65707;52.362;6.588;2023-10-31T04:52:41;52.43;40.13;70.97;;
76767;Laerm;65707;52.362;6.588;2023-10-31T04:55:09;50.55;41.68;76.19;;
76767;Laerm;65707;52.362;6.588;2023-10-31T04:57:37;52.79;43.40;82.04;;
76767;Laerm;65707;52.362;6.588;2023-10-31T05:00:05;56.27;43.75;75.10;;
76767;Laerm;65707;52.362;6.588;2023-10-31T05:02:33;48.57;41.76;73.88;;
76767;Laerm;65707;52.362;6.588;2023-10-31T05:05:00;49.01;41.59;71.28;;
76767;Laerm;65707;52.362;6.588;2023-10-31T05:07:27;49.65;41.75;80.43;;
76767;Laerm;65707;52.362;6.588;2023-10-31T05:09:53;51.01;39.78;67.35;;
76767;Laerm;65707;52.362;6.588;2023-10-31T05:12:20;45.76;40.42;57.21;;
76767;Laerm;65707;52.362;6.588;2023-10-31T05:14:48;57.73;40.86;74.32;;
76767;Laerm;65707;52.362;6.588;2023-10-31T05:17:15;47.02;41.63;65.28;;
76767;Laerm;65707;52.362;6.588;2023-10-31T05:19:42;46.94;41.57;67.92;;
76767;Laerm;65707;52.362;6.588;2023-10-31T05:22:09;45.49;40.06;65.86;;
76767;Laerm;65707;52.362;6.588;2023-10-31T05:24:36;53.53;41.82;74.06;;
76767;Laerm;65707;52.362;6.588;2023-10-31T05:27:05;48.46;41.83;69.09;;
76767;Laerm;65707;52.362;6.588;2023-10-31T05:29:33;54.85;42.59;71.65;;
76767;Laerm;65707;52.362;6.588;2023-10-31T05:32:03;48.36;42.62;69.15;;
76767;Laerm;65707;52.362;6.588;2023-10-31T05:34:30;48.19;43.09;67.89;;
76767;Laerm;65707;52.362;6.588;2023-10-31T05:36:56;47.45;42.85;61.75;;
76767;Laerm;65707;52.362;6.588;2023-10-31T05:39:23;47.86;42.13;66.12;;
76767;Laerm;65707;52.362;6.588;2023-10-31T05:41:50;57.45;42.80;76.18;;
76767;Laerm;65707;52.362;6.588;2023-10-31T05:44:17;63.56;41.87;81.30;;
76767;Laerm;65707;52.362;6.588;2023-10-31T05:46:44;46.39;41.40;59.07;;
76767;Laerm;65707;52.362;6.588;2023-10-31T05:49:12;46.94;42.26;58.00;;
76767;Laerm;65707;52.362;6.588;2023-10-31T05:51:38;47.35;41.64;57.64;;
76767;Laerm;65707;52.362;6.588;2023-10-31T05:54:07;54.20;42.13;75.20;;
76767;Laerm;65707;52.362;6.588;2023-10-31T05:56:34;56.77;42.66;73.90;;
76767;Laerm;65707;52.362;6.588;2023-10-31T05:59:00;53.04;43.37;69.23;;
76767;Laerm;65707;52.362;6.588;2023-10-31T06:01:27;54.32;44.94;69.21;;
76767;Laerm;65707;52.362;6.588;2023-10-31T06:03:54;47.09;42.28;54.39;;
76767;Laerm;65707;52.362;6.588;2023-10-31T06:06:22;53.24;43.19;62.25;;
76767;Laerm;65707;52.362;6.588;2023-10-31T06:08:49;53.99;45.33;68.72;;
76767;Laerm;65707;52.362;6.588;2023-10-31T06:11:15;54.63;43.95;74.07;;
76767;Laerm;65707;52.362;6.588;2023-10-31T06:13:42;60.09;44.82;75.50;;
76767;Laerm;65707;52.362;6.588;2023-10-31T06:16:09;54.67;45.19;68.28;;
76767;Laerm;65707;52.362;6.588;2023-10-31T06:18:38;52.32;46.76;65.62;;
76767;Laerm;65707;52.362;6.588;2023-10-31T06:21:06;58.55;45.30;77.20;;
76767;Laerm;65707;52.362;6.588;2023-10-31T06:23:36;50.22;44.84;65.60;;
76767;Laerm;65707;52.362;6.588;2023-10-31T06:26:03;48.79;43.74;56.02;;
76767;Laerm;65707;52.362;6.588;2023-10-31T06:28:30;54.94;44.63;71.61;;
76767;Laerm;65707;52.362;6.588;2023-10-31T06:30:59;55.58;45.38;69.74;;
76767;Laerm;65707;52.362;6.588;2023-10-31T06:33:26;49.91;43.44;61.18;;
76767;Laerm;65707;52.362;6.588;2023-10-31T06:35:53;50.53;44.81;56.10;;
76767;Laerm;65707;52.362;6.588;2023-10-31T06:38:19;59.54;44.59;76.30;;
76767;Laerm;65707;52.362;6.588;2023-10-31T06:40:48;61.39;44.93;80.21;;
76767;Laerm;65707;52.362;6.588;2023-10-31T06:43:14;51.41;45.45;59.58;;
76767;Laerm;65707;52.362;6.588;2023-10-31T06:45:41;72.28;45.84;85.64;;
76767;Laerm;65707;52.362;6.588;2023-10-31T06:48:08;50.09;45.42;65.88;;
76767;Laerm;65707;52.362;6.588;2023-10-31T06:50:34;59.46;45.44;77.93;;
76767;Laerm;65707;52.362;6.588;2023-10-31T06:53:01;62.21;44.79;80.27;;
76767;Laerm;65707;52.362;6.588;2023-10-31T06:55:28;57.41;45.61;75.64;;
76767;Laerm;65707;52.362;6.588;2023-10-31T06:57:56;57.36;46.01;73.89;;
76767;Laerm;65707;52.362;6.588;2023-10-31T07:00:23;58.02;46.70;72.56;;
76767;Laerm;65707;52.362;6.588;2023-10-31T07:02:49;50.79;46.92;61.90;;
76767;Laerm;65707;52.362;6.588;2023-10-31T07:05:16;50.65;45.77;60.39;;
76767;Laerm;65707;52.362;6.588;2023-10-31T07:07:45;50.14;46.04;63.11;;
76767;Laerm;65707;52.362;6.588;2023-10-31T07:10:12;51.09;45.37;67.41;;
76767;Laerm;65707;52.362;6.588;2023-10-31T07:12:39;62.92;45.66;76.01;;
76767;Laerm;65707;52.362;6.588;2023-10-31T07:15:09;51.32;44.04;63.61;;
76767;Laerm;65707;52.362;6.588;2023-10-31T07:17:35;49.50;44.16;64.31;;
76767;Laerm;65707;52.362;6.588;2023-10-31T07:20:04;50.94;44.46;63.14;;
76767;Laerm;65707;52.362;6.588;2023-10-31T07:22:31;59.99;44.17;87.23;;
76767;Laerm;65707;52.362;6.588;2023-10-31T07:25:02;49.71;45.54;63.66;;
76767;Laerm;65707;52.362;6.588;2023-10-31T07:27:29;58.94;45.19;78.21;;
76767;Laerm;65707;52.362;6.588;2023-10-31T07:29:56;54.57;44.84;71.47;;
76767;Laerm;65707;52.362;6.588;2023-10-31T07:32:25;57.71;44.97;74.72;;
76767;Laerm;65707;52.362;6.588;2023-10-31T07:34:52;54.62;45.07;70.44;;
76767;Laerm;65707;52.362;6.588;2023-10-31T07:37:19;50.39;44.58;62.46;;
76767;Laerm;65707;52.362;6.588;2023-10-31T07:39:46;55.79;45.11;73.22;;
76767;Laerm;65707;52.362;6.588;2023-10-31T07:42:14;51.17;44.65;70.45;;
76767;Laerm;65707;52.362;6.588;2023-10-31T07:44:40;66.90;44.81;84.18;;
76767;Laerm;65707;52.362;6.588;2023-10-31T07:47:07;64.75;43.54;84.19;;
76767;Laerm;65707;52.362;6.588;2023-10-31T07:49:35;69.53;45.15;83.36;;
76767;Laerm;65707;52.362;6.588;2023-10-31T07:52:02;60.08;43.98;79.35;;
76767;Laerm;65707;52.362;6.588;2023-10-31T07:54:30;59.39;44.71;75.29;;
76767;Laerm;65707;52.362;6.588;2023-10-31T07:56:56;56.54;42.53;75.63;;
76767;Laerm;65707;52.362;6.588;2023-10-31T07:59:23;53.83;44.91;72.28;;
76767;Laerm;65707;52.362;6.588;2023-10-31T08:01:49;53.74;43.73;67.41;;
76767;Laerm;65707;52.362;6.588;2023-10-31T08:04:17;51.59;44.94;65.53;;
76767;Laerm;65707;52.362;6.588;2023-10-31T08:06:45;57.31;47.34;76.27;;
76767;Laerm;65707;52.362;6.588;2023-10-31T08:09:12;51.50;43.37;66.57;;
76767;Laerm;65707;52.362;6.588;2023-10-31T08:11:39;56.62;43.23;74.23;;
76767;Laerm;65707;52.362;6.588;2023-10-31T08:14:05;60.15;43.93;78.45;;
76767;Laerm;65707;52.362;6.588;2023-10-31T08:16:32;47.97;43.59;63.73;;
76767;Laerm;65707;52.362;6.588;2023-10-31T08:19:00;48.00;42.14;63.80;;
76767;Laerm;65707;52.362;6.588;2023-10-31T08:21:26;60.44;42.97;81.90;;
76767;Laerm;65707;52.362;6.588;2023-10-31T08:24:03;63.65;43.94;79.63;;
76767;Laerm;65707;52.362;6.588;2023-10-31T08:26:33;49.40;41.74;71.00;;
76767;Laerm;65707;52.362;6.588;2023-10-31T08:29:02;55.47;42.01;74.14;;
76767;Laerm;65707;52.362;6.588;2023-10-31T08:31:34;55.89;43.13;77.49;;
76767;Laerm;65707;52.362;6.588;2023-10-31T08:34:00;51.62;43.43;72.62;;
76767;Laerm;65707;52.362;6.588;2023-10-31T08:36:29;47.70;42.20;65.91;;
76767;Laerm;65707;52.362;6.588;2023-10-31T08:38:56;47.80;43.01;64.85;;
76767;Laerm;65707;52.362;6.588;2023-10-31T08:41:24;47.29;41.23;60.70;;
76767;Laerm;65707;52.362;6.588;2023-10-31T08:43:50;60.04;41.81;79.19;;
76767;Laerm;65707;52.362;6.588;2023-10-31T08:46:17;51.74;42.85;73.52;;
76767;Laerm;65707;52.362;6.588;2023-10-31T08:48:44;60.76;43.88;79.25;;
76767;Laerm;65707;52.362;6.588;2023-10-31T08:51:11;62.63;42.76;81.23;;
76767;Laerm;65707;52.362;6.588;2023-10-31T08:53:37;54.00;42.99;74.91;;
76767;Laerm;65707;52.362;6.588;2023-10-31T08:56:05;48.69;41.41;71.33;;
76767;Laerm;65707;52.362;6.588;2023-10-31T08:58:33;52.84;42.09;71.65;;
76767;Laerm;65707;52.362;6.588;2023-10-31T09:00:59;48.27;41.62;67.49;;
76767;Laerm;65707;52.362;6.588;2023-10-31T09:03:29;55.13;41.16;81.76;;
76767;Laerm;65707;52.362;6.588;2023-10-31T09:05:55;48.82;42.19;66.18;;
76767;Laerm;65707;52.362;6.588;2023-10-31T09:08:22;54.30;41.12;74.94;;
76767;Laerm;65707;52.362;6.588;2023-10-31T09:10:49;48.20;41.70;65.08;;
76767;Laerm;65707;52.362;6.588;2023-10-31T09:13:16;48.53;42.24;68.31;;
76767;Laerm;65707;52.362;6.588;2023-10-31T09:15:44;61.59;43.75;78.52;;
76767;Laerm;65707;52.362;6.588;2023-10-31T09:18:11;56.00;42.99;74.11;;
76767;Laerm;65707;52.362;6.588;2023-10-31T09:20:42;66.29;43.13;82.99;;
76767;Laerm;65707;52.362;6.588;2023-10-31T09:23:09;68.24;43.47;83.17;;
76767;Laerm;65707;52.362;6.588;2023-10-31T09:25:36;48.81;42.66;68.40;;
76767;Laerm;65707;52.362;6.588;2023-10-31T09:28:05;51.38;42.34;70.74;;
76767;Laerm;65707;52.362;6.588;2023-10-31T09:30:40;55.01;42.41;73.08;;
76767;Laerm;65707;52.362;6.588;2023-10-31T09:33:08;55.76;42.85;74.40;;
76767;Laerm;65707;52.362;6.588;2023-10-31T09:35:37;53.20;42.62;69.75;;
76767;Laerm;65707;52.362;6.588;2023-10-31T09:38:09;49.67;41.50;72.59;;
76767;Laerm;65707;52.362;6.588;2023-10-31T09:40:37;56.76;41.58;74.94;;
76767;Laerm;65707;52.362;6.588;2023-10-31T09:43:05;64.35;43.20;80.18;;
76767;Laerm;65707;52.362;6.588;2023-10-31T09:45:32;47.67;41.13;62.88;;
76767;Laerm;65707;52.362;6.588;2023-10-31T09:48:01;46.64;42.18;57.23;;
76767;Laerm;65707;52.362;6.588;2023-10-31T09:50:30;60.75;41.85;81.15;;
76767;Laerm;65707;52.362;6.588;2023-10-31T09:52:59;45.80;42.07;56.22;;
76767;Laerm;65707;52.362;6.588;2023-10-31T09:55:44;49.23;42.17;70.29;;
76767;Laerm;65707;52.362;6.588;2023-10-31T09:58:11;48.11;42.07;69.20;;
76767;Laerm;65707;52.362;6.588;2023-10-31T10:00:39;56.98;43.85;76.93;;
76767;Laerm;65707;52.362;6.588;2023-10-31T10:03:07;50.07;41.50;71.45;;
76767;Laerm;65707;52.362;6.588;2023-10-31T10:05:39;46.56;41.31;62.92;;
76767;Laerm;65707;52.362;6.588;2023-10-31T10:08:07;55.55;41.39;72.48;;
76767;Laerm;65707;52.362;6.588;2023-10-31T10:10:34;60.31;43.22;78.74;;
76767;Laerm;65707;52.362;6.588;2023-10-31T10:13:02;48.51;42.02;65.72;;
76767;Laerm;65707;52.362;6.588;2023-10-31T10:15:29;47.53;41.19;66.22;;
76767;Laerm;65707;52.362;6.588;2023-10-31T10:17:56;47.35;41.96;64.72;;
76767;Laerm;65707;52.362;6.588;2023-10-31T10:20:23;60.93;40.53;80.81;;
76767;Laerm;65707;52.362;6.588;2023-10-31T10:22:51;46.61;40.82;62.18;;
76767;Laerm;65707;52.362;6.588;2023-10-31T10:25:18;56.19;41.04;75.43;;
76767;Laerm;65707;52.362;6.588;2023-10-31T10:27:46;47.02;41.77;59.30;;
76767;Laerm;65707;52.362;6.588;2023-10-31T10:30:15;55.69;41.68;72.76;;
76767;Laerm;65707;52.362;6.588;2023-10-31T10:32:41;47.96;41.63;65.88;;
76767;Laerm;65707;52.362;6.588;2023-10-31T10:35:08;51.55;41.98;76.17;;
76767;Laerm;65707;52.362;6.588;2023-10-31T10:37:37;55.63;41.18;74.28;;
76767;Laerm;65707;52.362;6.588;2023-10-31T10:40:11;62.62;40.47;79.54;;
76767;Laerm;65707;52.362;6.588;2023-10-31T10:42:45;70.25;42.02;85.65;;
76767;Laerm;65707;52.362;6.588;2023-10-31T10:45:13;50.67;43.05;70.47;;
76767;Laerm;65707;52.362;6.588;2023-10-31T10:47:49;48.73;40.90;67.22;;
76767;Laerm;65707;52.362;6.588;2023-10-31T10:50:18;61.34;41.71;80.80;;
76767;Laerm;65707;52.362;6.588;2023-10-31T10:52:52;57.83;41.35;75.54;;
76767;Laerm;65707;52.362;6.588;2023-10-31T10:55:26;52.72;43.53;66.28;;
76767;Laerm;65707;52.362;6.588;2023-10-31T10:58:04;57.08;45.43;71.33;;
76767;Laerm;65707;52.362;6.588;2023-10-31T11:00:31;54.64;41.91;71.77;;
76767;Laerm;65707;52.362;6.588;2023-10-31T11:03:00;48.35;42.45;58.32;;
76767;Laerm;65707;52.362;6.588;2023-10-31T11:05:28;49.53;43.99;62.66;;
76767;Laerm;65707;52.362;6.588;2023-10-31T11:07:57;55.78;41.65;74.94;;
76767;Laerm;65707;52.362;6.588;2023-10-31T11:10:27;60.81;43.74;78.13;;
76767;Laerm;65707;52.362;6.588;2023-10-31T11:12:54;48.46;42.71;61.34;;
76767;Laerm;65707;52.362;6.588;2023-10-31T11:15:23;47.65;42.18;57.27;;
76767;Laerm;65707;52.362;6.588;2023-10-31T11:17:51;48.68;42.35;69.94;;
76767;Laerm;65707;52.362;6.588;2023-10-31T11:20:19;61.91;39.84;81.16;;
76767;Laerm;65707;52.362;6.588;2023-10-31T11:22:47;67.99;41.88;82.79;;
76767;Laerm;65707;52.362;6.588;2023-10-31T11:25:19;67.74;41.29;81.98;;
76767;Laerm;65707;52.362;6.588;2023-10-31T11:27:51;46.15;40.04;58.62;;
76767;Laerm;65707;52.362;6.588;2023-10-31T11:30:22;55.05;39.51;71.57;;
76767;Laerm;65707;52.362;6.588;2023-10-31T11:32:53;44.61;39.84;57.61;;
76767;Laerm;65707;52.362;6.588;2023-10-31T11:35:22;46.22;39.96;61.73;;
76767;Laerm;65707;52.362;6.588;2023-10-31T11:38:02;64.24;43.02;82.63;;
76767;Laerm;65707;52.362;6.588;2023-10-31T11:40:29;60.97;41.25;78.54;;
76767;Laerm;65707;52.362;6.588;2023-10-31T11:43:01;47.10;41.92;58.51;;
76767;Laerm;65707;52.362;6.588;2023-10-31T11:45:34;49.33;41.32;72.49;;
76767;Laerm;65707;52.362;6.588;2023-10-31T11:48:01;46.86;41.69;59.55;;
76767;Laerm;65707;52.362;6.588;2023-10-31T11:50:30;61.63;40.92;79.53;;
76767;Laerm;65707;52.362;6.588;2023-10-31T11:53:05;59.67;40.26;77.43;;
76767;Laerm;65707;52.362;6.588;2023-10-31T11:55:35;55.71;38.40;73.66;;
76767;Laerm;65707;52.362;6.588;2023-10-31T11:58:27;48.36;40.79;64.60;;
76767;Laerm;65707;52.362;6.588;2023-10-31T12:01:02;55.65;41.24;71.63;;
76767;Laerm;65707;52.362;6.588;2023-10-31T12:03:37;45.16;40.37;55.34;;
76767;Laerm;65707;52.362;6.588;2023-10-31T12:06:06;56.19;39.93;79.74;;
76767;Laerm;65707;52.362;6.588;2023-10-31T12:08:36;56.01;40.40;74.98;;
76767;Laerm;65707;52.362;6.588;2023-10-31T12:11:05;62.13;39.60;77.72;;
76767;Laerm;65707;52.362;6.588;2023-10-31T12:13:36;43.53;39.23;57.31;;
76767;Laerm;65707;52.362;6.588;2023-10-31T12:16:04;65.82;41.23;79.00;;
76767;Laerm;65707;52.362;6.588;2023-10-31T12:18:34;53.48;42.04;74.72;;
76767;Laerm;65707;52.362;6.588;2023-10-31T12:21:01;47.41;42.24;58.00;;
76767;Laerm;65707;52.362;6.588;2023-10-31T12:23:27;61.31;39.84;81.74;;
76767;Laerm;65707;52.362;6.588;2023-10-31T12:25:54;57.57;40.97;76.72;;
76767;Laerm;65707;52.362;6.588;2023-10-31T12:28:24;47.03;40.09;64.01;;
76767;Laerm;65707;52.362;6.588;2023-10-31T12:30:53;53.97;40.77;76.53;;
76767;Laerm;65707;52.362;6.588;2023-10-31T12:33:22;52.51;40.56;69.23;;
76767;Laerm;65707;52.362;6.588;2023-10-31T12:35:52;50.74;43.49;68.49;;
76767;Laerm;65707;52.362;6.588;2023-10-31T12:38:23;55.56;41.18;73.33;;
76767;Laerm;65707;52.362;6.588;2023-10-31T12:40:50;62.57;42.53;79.06;;
76767;Laerm;65707;52.362;6.588;2023-10-31T12:43:19;46.25;40.86;57.49;;
76767;Laerm;65707;52.362;6.588;2023-10-31T12:45:45;60.17;41.37;78.60;;
76767;Laerm;65707;52.362;6.588;2023-10-31T12:48:13;48.01;39.93;64.45;;
76767;Laerm;65707;52.362;6.588;2023-10-31T12:50:40;45.60;40.21;55.59;;
76767;Laerm;65707;52.362;6.588;2023-10-31T12:53:09;58.48;40.14;77.85;;
76767;Laerm;65707;52.362;6.588;2023-10-31T12:55:41;51.30;40.72;73.05;;
76767;Laerm;65707;52.362;6.588;2023-10-31T12:58:20;55.75;41.89;73.78;;
76767;Laerm;65707;52.362;6.588;2023-10-31T13:00:47;52.52;40.16;70.93;;
76767;Laerm;65707;52.362;6.588;2023-10-31T13:03:17;53.04;40.88;72.72;;
76767;Laerm;65707;52.362;6.588;2023-10-31T13:05:48;55.85;41.65;74.31;;
76767;Laerm;65707;52.362;6.588;2023-10-31T13:08:15;47.80;40.30;65.02;;
76767;Laerm;65707;52.362;6.588;2023-10-31T13:10:43;61.43;40.29;77.45;;
76767;Laerm;65707;52.362;6.588;2023-10-31T13:13:10;47.33;39.81;59.68;;
76767;Laerm;65707;52.362;6.588;2023-10-31T13:15:37;45.45;40.27;56.02;;
76767;Laerm;65707;52.362;6.588;2023-10-31T13:18:04;46.63;40.49;54.51;;
76767;Laerm;65707;52.362;6.588;2023-10-31T13:20:32;58.01;42.65;77.27;;
76767;Laerm;65707;52.362;6.588;2023-10-31T13:22:59;47.56;41.41;60.50;;
76767;Laerm;65707;52.362;6.588;2023-10-31T13:25:28;54.07;42.89;69.48;;
76767;Laerm;65707;52.362;6.588;2023-10-31T13:27:56;56.58;41.99;72.94;;
76767;Laerm;65707;52.362;6.588;2023-10-31T13:30:24;54.88;42.26;68.99;;
76767;Laerm;65707;52.362;6.588;2023-10-31T13:32:50;57.53;48.72;62.70;;
76767;Laerm;65707;52.362;6.588;2023-10-31T13:35:18;50.18;41.25;59.54;;
76767;Laerm;65707;52.362;6.588;2023-10-31T13:37:49;46.47;41.12;55.54;;
76767;Laerm;65707;52.362;6.588;2023-10-31T13:40:18;63.45;43.59;81.41;;
76767;Laerm;65707;52.362;6.588;2023-10-31T13:42:45;61.85;42.82;78.91;;
76767;Laerm;65707;52.362;6.588;2023-10-31T13:45:16;48.06;42.89;55.95;;
76767;Laerm;65707;52.362;6.588;2023-10-31T13:47:44;48.92;42.87;60.10;;